sensor_id;sensor_type;location;lat;lon;timestamp;pressure;altitude;pressure_sealevel;temperature;humidity
19086;BME280;9675;51.538;6.728;2023-11-21T00:00:01;100714.78;;;9.74;100.00
19086;BME280;9675;51.538;6.728;2023-11-21T00:02:28;100718.88;;;9.70;100.00
19086;BME280;9675;51.538;6.728;2023-11-21T00:04:55;100717.94;;;9.68;100.00
19086;BME280;9675;51.538;6.728;2023-11-21T00:07:22;100716.94;;;9.66;100.00
19086;BME280;9675;51.538;6.728;2023-11-21T00:09:49;100710.84;;;9.64;100.00
19086;BME280;9675;51.538;6.728;2023-11-21T00:12:18;100720.19;;;9.62;100.00
19086;BME280;9675;51.538;6.728;2023-11-21T00:14:46;100723.53;;;9.61;100.00
19086;BME280;9675;51.538;6.728;2023-11-21T00:17:13;100725.22;;;9.61;100.00
19086;BME280;9675;51.538;6.728;2023-11-21T00:19:40;100723.53;;;9.61;100.00
19086;BME280;9675;51.538;6.728;2023-11-21T00:22:08;100720.00;;;9.59;100.00
19086;BME280;9675;51.538;6.728;2023-11-21T00:24:35;100722.50;;;9.58;100.00
19086;BME280;9675;51.538;6.728;2023-11-21T00:27:03;100730.22;;;9.58;100.00
19086;BME280;9675;51.538;6.728;2023-11-21T00:29:31;100726.69;;;9.56;100.00
19086;BME280;9675;51.538;6.728;2023-11-21T00:31:58;100727.56;;;9.56;100.00
19086;BME280;9675;51.538;6.728;2023-11-21T00:34:25;100734.41;;;9.56;100.00
19086;BME280;9675;51.538;6.728;2023-11-21T00:36:52;100730.78;;;9.52;100.00
19086;BME280;9675;51.538;6.728;2023-11-21T00:39:19;100728.94;;;9.50;100.00
19086;BME280;9675;51.538;6.728;2023-11-21T00:41:46;100729.03;;;9.51;100.00
19086;BME280;9675;51.538;6.728;2023-11-21T00:44:14;100736.56;;;9.48;100.00
19086;BME280;9675;51.538;6.728;2023-11-21T00:46:43;100735.84;;;9.51;100.00
19086;BME280;9675;51.538;6.728;2023-11-21T00:49:10;100738.31;;;9.49;100.00
19086;BME280;9675;51.538;6.728;2023-11-21T00:51:37;100734.81;;;9.47;100.00
19086;BME280;9675;51.538;6.728;2023-11-21T00:54:05;100735.59;;;9.46;100.00
19086;BME280;9675;51.538;6.728;2023-11-21T00:56:32;100735.59;;;9.46;100.00
19086;BME280;9675;51.538;6.728;2023-11-21T00:58:59;100744.91;;;9.44;100.00
19086;BME280;9675;51.538;6.728;2023-11-21T01:01:26;100745.72;;;9.43;100.00
19086;BME280;9675;51.538;6.728;2023-11-21T01:03:55;100747.44;;;9.43;100.00
19086;BME280;9675;51.538;6.728;2023-11-21T01:06:22;100754.31;;;9.44;100.00
19086;BME280;9675;51.538;6.728;2023-11-21T01:08:49;100749.91;;;9.41;100.00
19086;BME280;9675;51.538;6.728;2023-11-21T01:11:16;100751.59;;;9.41;100.00
19086;BME280;9675;51.538;6.728;2023-11-21T01:13:43;100745.66;;;9.42;100.00
19086;BME280;9675;51.538;6.728;2023-11-21T01:16:11;100751.69;;;9.42;100.00
19086;BME280;9675;51.538;6.728;2023-11-21T01:18:38;100743.97;;;9.42;100.00
19086;BME280;9675;51.538;6.728;2023-11-21T01:21:07;100756.81;;;9.42;100.00
19086;BME280;9675;51.538;6.728;2023-11-21T01:23:34;100759.31;;;9.41;100.00
19086;BME280;9675;51.538;6.728;2023-11-21T01:26:02;100761.78;;;9.39;100.00
19086;BME280;9675;51.538;6.728;2023-11-21T01:28:29;100760.91;;;9.38;100.00
19086;BME280;9675;51.538;6.728;2023-11-21T01:30:56;100770.28;;;9.38;100.00
19086;BME280;9675;51.538;6.728;2023-11-21T01:33:23;100775.44;;;9.38;100.00
19086;BME280;9675;51.538;6.728;2023-11-21T01:35:51;100764.28;;;9.37;100.00
19086;BME280;9675;51.538;6.728;2023-11-21T01:38:22;100770.28;;;9.38;100.00
19086;BME280;9675;51.538;6.728;2023-11-21T01:40:49;100767.56;;;9.35;100.00
19086;BME280;9675;51.538;6.728;2023-11-21T01:43:16;100771.03;;;9.35;100.00
19086;BME280;9675;51.538;6.728;2023-11-21T01:45:43;100774.47;;;9.36;100.00
19086;BME280;9675;51.538;6.728;2023-11-21T01:48:13;100768.53;;;9.37;100.00
19086;BME280;9675;51.538;6.728;2023-11-21T01:50:42;100775.44;;;9.38;100.00
19086;BME280;9675;51.538;6.728;2023-11-21T01:53:12;100782.34;;;9.39;100.00
19086;BME280;9675;51.538;6.728;2023-11-21T01:55:41;100773.75;;;9.38;100.00
19086;BME280;9675;51.538;6.728;2023-11-21T01:58:10;100772.06;;;9.39;100.00
19086;BME280;9675;51.538;6.728;2023-11-21T02:00:38;100776.25;;;9.37;100.00
19086;BME280;9675;51.538;6.728;2023-11-21T02:03:05;100772.78;;;9.36;100.00
19086;BME280;9675;51.538;6.728;2023-11-21T02:05:32;100779.53;;;9.34;100.00
19086;BME280;9675;51.538;6.728;2023-11-21T02:08:00;100786.34;;;9.34;100.00
19086;BME280;9675;51.538;6.728;2023-11-21T02:10:28;100791.50;;;9.34;100.00
19086;BME280;9675;51.538;6.728;2023-11-21T02:12:58;100782.00;;;9.33;100.00
19086;BME280;9675;51.538;6.728;2023-11-21T02:15:28;100790.69;;;9.35;100.00
19086;BME280;9675;51.538;6.728;2023-11-21T02:17:56;100799.19;;;9.34;100.00
19086;BME280;9675;51.538;6.728;2023-11-21T02:20:24;100802.75;;;9.36;100.00
19086;BME280;9675;51.538;6.728;2023-11-21T02:22:55;100798.50;;;9.36;100.00
19086;BME280;9675;51.538;6.728;2023-11-21T02:25:25;100800.19;;;9.36;100.00
19086;BME280;9675;51.538;6.728;2023-11-21T02:27:53;100805.31;;;9.36;100.00
19086;BME280;9675;51.538;6.728;2023-11-21T02:30:21;100804.53;;;9.37;100.00
19086;BME280;9675;51.538;6.728;2023-11-21T02:32:48;100801.84;;;9.35;100.00
19086;BME280;9675;51.538;6.728;2023-11-21T02:35:15;100804.53;;;9.37;100.00
19086;BME280;9675;51.538;6.728;2023-11-21T02:37:42;100799.38;;;9.37;100.00
19086;BME280;9675;51.538;6.728;2023-11-21T02:40:12;100806.25;;;9.38;100.00
19086;BME280;9675;51.538;6.728;2023-11-21T02:42:39;100805.22;;;9.34;100.00
19086;BME280;9675;51.538;6.728;2023-11-21T02:45:08;100802.66;;;9.34;100.00
19086;BME280;9675;51.538;6.728;2023-11-21T02:47:38;100802.56;;;9.33;100.00
19086;BME280;9675;51.538;6.728;2023-11-21T02:50:06;100814.63;;;9.34;100.00
19086;BME280;9675;51.538;6.728;2023-11-21T02:52:34;100811.25;;;9.35;100.00
19086;BME280;9675;51.538;6.728;2023-11-21T02:55:01;100813.03;;;9.36;100.00
19086;BME280;9675;51.538;6.728;2023-11-21T02:57:30;100809.47;;;9.34;100.00
19086;BME280;9675;51.538;6.728;2023-11-21T02:59:57;100809.47;;;9.34;100.00
19086;BME280;9675;51.538;6.728;2023-11-21T03:02:25;100804.34;;;9.34;100.00
19086;BME280;9675;51.538;6.728;2023-11-21T03:04:52;100810.28;;;9.33;100.00
19086;BME280;9675;51.538;6.728;2023-11-21T03:07:19;100814.56;;;9.32;100.00
19086;BME280;9675;51.538;6.728;2023-11-21T03:09:47;100822.28;;;9.32;100.00
19086;BME280;9675;51.538;6.728;2023-11-21T03:12:14;100812.78;;;9.31;100.00
19086;BME280;9675;51.538;6.728;2023-11-21T03:14:43;100820.50;;;9.31;100.00
19086;BME280;9675;51.538;6.728;2023-11-21T03:17:10;100818.81;;;9.32;100.00
19086;BME280;9675;51.538;6.728;2023-11-21T03:19:37;100815.34;;;9.31;100.00
19086;BME280;9675;51.538;6.728;2023-11-21T03:22:04;100821.28;;;9.30;100.00
19086;BME280;9675;51.538;6.728;2023-11-21T03:24:31;100826.53;;;9.32;100.00
19086;BME280;9675;51.538;6.728;2023-11-21T03:26:58;100829.00;;;9.30;100.00
19086;BME280;9675;51.538;6.728;2023-11-21T03:29:26;100833.25;;;9.30;100.00
19086;BME280;9675;51.538;6.728;2023-11-21T03:31:54;100829.00;;;9.30;100.00
19086;BME280;9675;51.538;6.728;2023-11-21T03:34:26;100840.16;;;9.31;100.00
19086;BME280;9675;51.538;6.728;2023-11-21T03:36:53;100843.44;;;9.28;100.00
19086;BME280;9675;51.538;6.728;2023-11-21T03:39:21;100841.75;;;9.29;100.00
19086;BME280;9675;51.538;6.728;2023-11-21T03:41:48;100844.31;;;9.29;100.00
19086;BME280;9675;51.538;6.728;2023-11-21T03:44:17;100846.09;;;9.30;100.00
19086;BME280;9675;51.538;6.728;2023-11-21T03:46:44;100852.13;;;9.30;100.00
19086;BME280;9675;51.538;6.728;2023-11-21T03:49:13;100855.56;;;9.31;100.00
19086;BME280;9675;51.538;6.728;2023-11-21T03:51:41;100857.97;;;9.28;100.00
19086;BME280;9675;51.538;6.728;2023-11-21T03:54:08;100862.31;;;9.29;100.00
19086;BME280;9675;51.538;6.728;2023-11-21T03:56:35;100863.94;;;9.27;100.00
19086;BME280;9675;51.538;6.728;2023-11-21T03:59:02;100863.09;;;9.28;100.00
19086;BME280;9675;51.538;6.728;2023-11-21T04:01:29;100870.00;;;9.29;100.00
19086;BME280;9675;51.538;6.728;2023-11-21T04:03:56;100871.69;;;9.28;100.00
19086;BME280;9675;51.538;6.728;2023-11-21T04:06:24;100871.63;;;9.27;100.00
19086;BME280;9675;51.538;6.728;2023-11-21T04:08:51;100877.72;;;9.29;100.00
19086;BME280;9675;51.538;6.728;2023-11-21T04:11:19;100877.72;;;9.29;100.00
19086;BME280;9675;51.538;6.728;2023-11-21T04:13:45;100883.66;;;9.28;100.00
19086;BME280;9675;51.538;6.728;2023-11-21T04:16:13;100870.66;;;9.25;100.00
19086;BME280;9675;51.538;6.728;2023-11-21T04:18:40;100875.00;;;9.26;100.00
19086;BME280;9675;51.538;6.728;2023-11-21T04:21:07;100874.19;;;9.27;100.00
19086;BME280;9675;51.538;6.728;2023-11-21T04:23:36;100871.44;;;9.24;100.00
19086;BME280;9675;51.538;6.728;2023-11-21T04:26:03;100878.47;;;9.26;100.00
19086;BME280;9675;51.538;6.728;2023-11-21T04:28:30;100876.78;;;9.27;100.00
19086;BME280;9675;51.538;6.728;2023-11-21T04:30:57;100877.56;;;9.26;100.00
19086;BME280;9675;51.538;6.728;2023-11-21T04:33:24;100881.81;;;9.25;100.00
19086;BME280;9675;51.538;6.728;2023-11-21T04:35:51;100880.94;;;9.25;100.00
19086;BME280;9675;51.538;6.728;2023-11-21T04:38:18;100880.94;;;9.25;100.00
19086;BME280;9675;51.538;6.728;2023-11-21T04:40:47;100880.94;;;9.25;100.00
19086;BME280;9675;51.538;6.728;2023-11-21T04:43:14;100881.72;;;9.24;100.00
19086;BME280;9675;51.538;6.728;2023-11-21T04:45:41;100881.63;;;9.22;100.00
19086;BME280;9675;51.538;6.728;2023-11-21T04:48:08;100891.06;;;9.22;100.00
19086;BME280;9675;51.538;6.728;2023-11-21T04:50:35;100892.63;;;9.20;100.00
19086;BME280;9675;51.538;6.728;2023-11-21T04:53:02;100894.31;;;9.19;100.00
19086;BME280;9675;51.538;6.728;2023-11-21T04:55:31;100897.63;;;9.17;100.00
19086;BME280;9675;51.538;6.728;2023-11-21T04:57:59;100901.94;;;9.18;100.00
19086;BME280;9675;51.538;6.728;2023-11-21T05:00:26;100904.50;;;9.18;100.00
19086;BME280;9675;51.538;6.728;2023-11-21T05:02:53;100906.13;;;9.16;100.00
19086;BME280;9675;51.538;6.728;2023-11-21T05:05:20;100908.69;;;9.16;100.00
19086;BME280;9675;51.538;6.728;2023-11-21T05:07:48;100910.38;;;9.15;100.00
19086;BME280;9675;51.538;6.728;2023-11-21T05:10:15;100911.06;;;9.13;100.00
19086;BME280;9675;51.538;6.728;2023-11-21T05:12:42;100916.19;;;9.13;100.00
19086;BME280;9675;51.538;6.728;2023-11-21T05:15:15;100910.28;;;9.14;100.00
19086;BME280;9675;51.538;6.728;2023-11-21T05:17:43;100914.53;;;9.13;100.00
19086;BME280;9675;51.538;6.728;2023-11-21T05:20:12;100911.88;;;9.12;100.00
19086;BME280;9675;51.538;6.728;2023-11-21T05:22:40;100908.25;;;9.08;100.00
19086;BME280;9675;51.538;6.728;2023-11-21T05:25:08;100920.28;;;9.09;100.00
19086;BME280;9675;51.538;6.728;2023-11-21T05:27:35;100934.91;;;9.10;100.00
19086;BME280;9675;51.538;6.728;2023-11-21T05:30:04;100939.06;;;9.08;100.00
19086;BME280;9675;51.538;6.728;2023-11-21T05:32:33;100937.38;;;9.09;100.00
19086;BME280;9675;51.538;6.728;2023-11-21T05:35:00;100943.41;;;9.09;100.00
19086;BME280;9675;51.538;6.728;2023-11-21T05:37:27;100950.31;;;9.10;100.00
19086;BME280;9675;51.538;6.728;2023-11-21T05:39:55;100953.59;;;9.08;100.00
19086;BME280;9675;51.538;6.728;2023-11-21T05:42:23;100955.19;;;9.06;100.00
19086;BME280;9675;51.538;6.728;2023-11-21T05:44:50;100961.94;;;9.04;100.00
19086;BME280;9675;51.538;6.728;2023-11-21T05:47:17;100963.50;;;9.02;100.00
19086;BME280;9675;51.538;6.728;2023-11-21T05:49:46;100961.56;;;8.98;100.00
19086;BME280;9675;51.538;6.728;2023-11-21T05:52:16;100958.22;;;8.99;100.00
19086;BME280;9675;51.538;6.728;2023-11-21T05:54:43;100964.34;;;9.01;100.00
19086;BME280;9675;51.538;6.728;2023-11-21T05:57:10;100969.53;;;9.02;100.00
19086;BME280;9675;51.538;6.728;2023-11-21T05:59:37;100966.16;;;9.03;100.00
19086;BME280;9675;51.538;6.728;2023-11-21T06:02:04;100975.56;;;9.03;100.00
19086;BME280;9675;51.538;6.728;2023-11-21T06:04:33;100982.47;;;9.04;100.00
19086;BME280;9675;51.538;6.728;2023-11-21T06:07:01;100989.38;;;9.05;100.00
19086;BME280;9675;51.538;6.728;2023-11-21T06:09:29;100993.53;;;9.03;100.00
19086;BME280;9675;51.538;6.728;2023-11-21T06:11:56;100991.75;;;9.02;100.00
19086;BME280;9675;51.538;6.728;2023-11-21T06:14:24;100997.88;;;9.04;100.00
19086;BME280;9675;51.538;6.728;2023-11-21T06:16:51;100997.09;;;9.05;100.00
19086;BME280;9675;51.538;6.728;2023-11-21T06:19:18;101008.16;;;9.04;100.00
19086;BME280;9675;51.538;6.728;2023-11-21T06:21:46;101005.50;;;9.02;100.00
19086;BME280;9675;51.538;6.728;2023-11-21T06:24:14;101009.72;;;9.02;100.00
19086;BME280;9675;51.538;6.728;2023-11-21T06:26:42;101011.50;;;9.03;100.00
19086;BME280;9675;51.538;6.728;2023-11-21T06:29:10;101015.69;;;9.01;100.00
19086;BME280;9675;51.538;6.728;2023-11-21T06:31:37;101013.91;;;9.00;100.00
19086;BME280;9675;51.538;6.728;2023-11-21T06:34:06;101019.06;;;9.00;100.00
19086;BME280;9675;51.538;6.728;2023-11-21T06:36:34;101013.91;;;9.00;100.00
19086;BME280;9675;51.538;6.728;2023-11-21T06:39:02;101020.84;;;9.01;100.00
19086;BME280;9675;51.538;6.728;2023-11-21T06:41:33;101027.72;;;9.02;100.00
19086;BME280;9675;51.538;6.728;2023-11-21T06:44:00;101032.94;;;9.03;100.00
19086;BME280;9675;51.538;6.728;2023-11-21T06:46:28;101043.22;;;9.03;100.00
19086;BME280;9675;51.538;6.728;2023-11-21T06:48:55;101042.34;;;9.03;100.00
19086;BME280;9675;51.538;6.728;2023-11-21T06:51:22;101059.53;;;9.04;100.00
19086;BME280;9675;51.538;6.728;2023-11-21T06:53:49;101060.31;;;9.03;100.00
19086;BME280;9675;51.538;6.728;2023-11-21T06:56:17;101062.09;;;9.04;100.00
19086;BME280;9675;51.538;6.728;2023-11-21T06:58:46;101059.53;;;9.04;100.00
19086;BME280;9675;51.538;6.728;2023-11-21T07:01:13;101059.53;;;9.04;100.00
19086;BME280;9675;51.538;6.728;2023-11-21T07:03:41;101059.72;;;9.07;100.00
19086;BME280;9675;51.538;6.728;2023-11-21T07:06:08;101061.19;;;9.03;100.00
19086;BME280;9675;51.538;6.728;2023-11-21T07:08:35;101070.53;;;9.01;100.00
19086;BME280;9675;51.538;6.728;2023-11-21T07:11:03;101076.34;;;8.99;100.00
19086;BME280;9675;51.538;6.728;2023-11-21T07:13:30;101076.34;;;8.99;100.00
19086;BME280;9675;51.538;6.728;2023-11-21T07:15:59;101079.69;;;8.98;100.00
19086;BME280;9675;51.538;6.728;2023-11-21T07:18:26;101080.69;;;9.00;100.00
19086;BME280;9675;51.538;6.728;2023-11-21T07:20:53;101082.28;;;8.98;100.00
19086;BME280;9675;51.538;6.728;2023-11-21T07:23:20;101079.81;;;8.99;100.00
19086;BME280;9675;51.538;6.728;2023-11-21T07:25:48;101081.66;;;9.02;100.00
19086;BME280;9675;51.538;6.728;2023-11-21T07:28:15;101080.97;;;9.04;100.00
19086;BME280;9675;51.538;6.728;2023-11-21T07:30:42;101083.44;;;9.03;100.00
19086;BME280;9675;51.538;6.728;2023-11-21T07:33:11;101081.66;;;9.02;100.00
19086;BME280;9675;51.538;6.728;2023-11-21T07:35:38;101078.28;;;9.03;100.00
19086;BME280;9675;51.538;6.728;2023-11-21T07:38:05;101083.53;;;9.04;100.00
19086;BME280;9675;51.538;6.728;2023-11-21T07:40:32;101092.91;;;9.04;100.00
19086;BME280;9675;51.538;6.728;2023-11-21T07:42:59;101089.34;;;9.02;100.00
19086;BME280;9675;51.538;6.728;2023-11-21T07:45:28;101102.41;;;9.05;100.00
19086;BME280;9675;51.538;6.728;2023-11-21T07:47:55;101108.53;;;9.07;100.00
19086;BME280;9675;51.538;6.728;2023-11-21T07:50:24;101114.63;;;9.09;100.00
19086;BME280;9675;51.538;6.728;2023-11-21T07:52:52;101125.69;;;9.08;100.00
19086;BME280;9675;51.538;6.728;2023-11-21T07:55:20;101131.53;;;9.05;100.00
19086;BME280;9675;51.538;6.728;2023-11-21T07:57:47;101135.00;;;9.06;100.00
19086;BME280;9675;51.538;6.728;2023-11-21T08:00:14;101139.41;;;9.08;100.00
19086;BME280;9675;51.538;6.728;2023-11-21T08:02:42;101129.94;;;9.07;100.00
19086;BME280;9675;51.538;6.728;2023-11-21T08:05:12;101142.09;;;9.10;100.00
19086;BME280;9675;51.538;6.728;2023-11-21T08:07:40;101151.47;;;9.09;100.00
19086;BME280;9675;51.538;6.728;2023-11-21T08:10:09;101155.72;;;9.09;100.00
19086;BME280;9675;51.538;6.728;2023-11-21T08:12:37;101158.28;;;9.09;100.00
19086;BME280;9675;51.538;6.728;2023-11-21T08:15:05;101168.47;;;9.07;100.00
19086;BME280;9675;51.538;6.728;2023-11-21T08:17:33;101163.16;;;9.04;100.00
19086;BME280;9675;51.538;6.728;2023-11-21T08:20:01;101170.75;;;9.03;100.00
19086;BME280;9675;51.538;6.728;2023-11-21T08:22:29;101175.91;;;9.03;100.00
19086;BME280;9675;51.538;6.728;2023-11-21T08:24:58;101167.41;;;9.04;100.00
19086;BME280;9675;51.538;6.728;2023-11-21T08:27:25;101178.66;;;9.06;100.00
19086;BME280;9675;51.538;6.728;2023-11-21T08:29:52;101186.44;;;9.07;100.00
19086;BME280;9675;51.538;6.728;2023-11-21T08:32:20;101186.53;;;9.09;100.00
19086;BME280;9675;51.538;6.728;2023-11-21T08:34:47;101190.28;;;9.14;100.00
19086;BME280;9675;51.538;6.728;2023-11-21T08:37:16;101188.50;;;9.13;100.00
19086;BME280;9675;51.538;6.728;2023-11-21T08:39:44;101193.63;;;9.13;100.00
19086;BME280;9675;51.538;6.728;2023-11-21T08:42:12;101195.31;;;9.12;100.00
19086;BME280;9675;51.538;6.728;2023-11-21T08:44:40;101198.78;;;9.13;100.00
19086;BME280;9675;51.538;6.728;2023-11-21T08:47:07;101201.44;;;9.14;100.00
19086;BME280;9675;51.538;6.728;2023-11-21T08:49:34;101203.13;;;9.14;100.00
19086;BME280;9675;51.538;6.728;2023-11-21T08:52:01;101203.91;;;9.13;100.00
19086;BME280;9675;51.538;6.728;2023-11-21T08:54:28;101207.31;;;9.12;100.00
19086;BME280;9675;51.538;6.728;2023-11-21T08:56:55;101210.84;;;9.14;100.00
19086;BME280;9675;51.538;6.728;2023-11-21T08:59:25;101214.41;;;9.16;100.00
19086;BME280;9675;51.538;6.728;2023-11-21T09:01:52;101218.75;;;9.17;100.00
19086;BME280;9675;51.538;6.728;2023-11-21T09:04:19;101222.28;;;9.19;100.00
19086;BME280;9675;51.538;6.728;2023-11-21T09:06:46;101222.38;;;9.20;100.00
19086;BME280;9675;51.538;6.728;2023-11-21T09:09:13;101226.81;;;9.23;100.00
19086;BME280;9675;51.538;6.728;2023-11-21T09:11:40;101231.94;;;9.23;100.00
19086;BME280;9675;51.538;6.728;2023-11-21T09:14:07;101231.88;;;9.21;100.00
19086;BME280;9675;51.538;6.728;2023-11-21T09:16:37;101237.78;;;9.20;100.00
19086;BME280;9675;51.538;6.728;2023-11-21T09:19:04;101233.72;;;9.24;100.00
19086;BME280;9675;51.538;6.728;2023-11-21T09:21:32;101245.78;;;9.25;100.00
19086;BME280;9675;51.538;6.728;2023-11-21T09:24:00;101241.44;;;9.24;100.00
19086;BME280;9675;51.538;6.728;2023-11-21T09:26:28;101249.03;;;9.22;100.00
19086;BME280;9675;51.538;6.728;2023-11-21T09:28:55;101249.13;;;9.24;100.00
19086;BME280;9675;51.538;6.728;2023-11-21T09:31:22;101247.56;;;9.26;100.00
19086;BME280;9675;51.538;6.728;2023-11-21T09:33:51;101258.00;;;9.29;100.00
19086;BME280;9675;51.538;6.728;2023-11-21T09:36:18;101257.22;;;9.30;100.00
19086;BME280;9675;51.538;6.728;2023-11-21T09:38:47;101255.44;;;9.29;100.00
19086;BME280;9675;51.538;6.728;2023-11-21T09:41:25;101265.81;;;9.30;100.00
19086;BME280;9675;51.538;6.728;2023-11-21T09:43:57;101266.72;;;9.31;100.00
19086;BME280;9675;51.538;6.728;2023-11-21T09:46:28;101270.19;;;9.31;100.00
19086;BME280;9675;51.538;6.728;2023-11-21T09:48:59;101283.09;;;9.33;100.00
19086;BME280;9675;51.538;6.728;2023-11-21T09:51:32;101281.25;;;9.30;100.00
19086;BME280;9675;51.538;6.728;2023-11-21T09:54:05;101282.13;;;9.31;100.00
19086;BME280;9675;51.538;6.728;2023-11-21T09:56:34;101281.25;;;9.30;100.00
19086;BME280;9675;51.538;6.728;2023-11-21T09:59:02;101276.00;;;9.29;100.00
19086;BME280;9675;51.538;6.728;2023-11-21T10:01:35;101275.22;;;9.30;100.00
19086;BME280;9675;51.538;6.728;2023-11-21T10:04:05;101277.94;;;9.33;100.00
19086;BME280;9675;51.538;6.728;2023-11-21T10:06:38;101276.22;;;9.32;100.00
19086;BME280;9675;51.538;6.728;2023-11-21T10:09:09;101276.38;;;9.35;100.00
19086;BME280;9675;51.538;6.728;2023-11-21T10:11:40;101282.50;;;9.37;100.00
19086;BME280;9675;51.538;6.728;2023-11-21T10:14:10;101290.28;;;9.38;100.00
19086;BME280;9675;51.538;6.728;2023-11-21T10:16:40;101287.66;;;9.37;100.00
19086;BME280;9675;51.538;6.728;2023-11-21T10:19:10;101290.41;;;9.40;100.00
19086;BME280;9675;51.538;6.728;2023-11-21T10:21:39;101286.03;;;9.39;100.00
19086;BME280;9675;51.538;6.728;2023-11-21T10:24:07;101290.56;;;9.43;100.00
19086;BME280;9675;51.538;6.728;2023-11-21T10:26:35;101293.34;;;9.46;100.00
19086;BME280;9675;51.538;6.728;2023-11-21T10:29:03;101293.34;;;9.46;100.00
19086;BME280;9675;51.538;6.728;2023-11-21T10:31:30;101295.13;;;9.47;100.00
19086;BME280;9675;51.538;6.728;2023-11-21T10:34:15;101301.34;;;9.51;100.00
19086;BME280;9675;51.538;6.728;2023-11-21T10:36:43;101303.72;;;9.48;100.00
19086;BME280;9675;51.538;6.728;2023-11-21T10:39:16;101309.72;;;9.48;100.00
19086;BME280;9675;51.538;6.728;2023-11-21T10:41:44;101311.44;;;9.48;100.00
19086;BME280;9675;51.538;6.728;2023-11-21T10:44:14;101315.69;;;9.47;100.00
19086;BME280;9675;51.538;6.728;2023-11-21T10:46:46;101314.88;;;9.48;100.00
19086;BME280;9675;51.538;6.728;2023-11-21T10:49:18;101319.16;;;9.48;100.00
19086;BME280;9675;51.538;6.728;2023-11-21T10:51:45;101321.91;;;9.51;100.00
19086;BME280;9675;51.538;6.728;2023-11-21T10:54:18;101322.91;;;9.53;100.00
19086;BME280;9675;51.538;6.728;2023-11-21T10:56:49;101317.81;;;9.54;100.00
19086;BME280;9675;51.538;6.728;2023-11-21T10:59:17;101324.75;;;9.55;100.00
19086;BME280;9675;51.538;6.728;2023-11-21T11:01:47;101329.88;;;9.55;100.00
19086;BME280;9675;51.538;6.728;2023-11-21T11:04:19;101330.94;;;9.59;100.00
19086;BME280;9675;51.538;6.728;2023-11-21T11:06:54;101329.28;;;9.59;100.00
19086;BME280;9675;51.538;6.728;2023-11-21T11:09:22;101331.84;;;9.59;100.00
19086;BME280;9675;51.538;6.728;2023-11-21T11:11:51;101335.25;;;9.58;100.00
19086;BME280;9675;51.538;6.728;2023-11-21T11:14:19;101339.56;;;9.59;100.00
19086;BME280;9675;51.538;6.728;2023-11-21T11:16:53;101330.09;;;9.58;100.00
19086;BME280;9675;51.538;6.728;2023-11-21T11:19:22;101331.16;;;9.62;100.00
19086;BME280;9675;51.538;6.728;2023-11-21T11:22:10;101333.84;;;9.63;100.00
19086;BME280;9675;51.538;6.728;2023-11-21T11:25:12;101343.28;;;9.64;100.00
19086;BME280;9675;51.538;6.728;2023-11-21T11:27:52;101341.63;;;9.65;100.00
19086;BME280;9675;51.538;6.728;2023-11-21T11:30:39;101344.19;;;9.65;100.00
19086;BME280;9675;51.538;6.728;2023-11-21T11:33:17;101336.47;;;9.65;100.00
19086;BME280;9675;51.538;6.728;2023-11-21T11:36:00;101347.84;;;9.68;100.00
19086;BME280;9675;51.538;6.728;2023-11-21T11:38:32;101350.44;;;9.68;100.00
19086;BME280;9675;51.538;6.728;2023-11-21T11:41:03;101347.94;;;9.70;100.00
19086;BME280;9675;51.538;6.728;2023-11-21T11:43:31;101358.41;;;9.73;100.00
19086;BME280;9675;51.538;6.728;2023-11-21T11:46:05;101358.50;;;9.74;100.00
19086;BME280;9675;51.538;6.728;2023-11-21T11:48:37;101348.41;;;9.77;100.00
19086;BME280;9675;51.538;6.728;2023-11-21T11:51:10;101353.56;;;9.77;100.00
19086;BME280;9675;51.538;6.728;2023-11-21T11:53:41;101353.72;;;9.80;100.00
19086;BME280;9675;51.538;6.728;2023-11-21T11:56:24;101346.91;;;9.81;100.00
19086;BME280;9675;51.538;6.728;2023-11-21T11:58:53;101350.38;;;9.81;100.00
19086;BME280;9675;51.538;6.728;2023-11-21T12:01:22;101352.16;;;9.82;100.00
19086;BME280;9675;51.538;6.728;2023-11-21T12:04:26;101355.69;;;9.85;100.00
19086;BME280;9675;51.538;6.728;2023-11-21T12:07:02;101359.97;;;9.84;100.00
19086;BME280;9675;51.538;6.728;2023-11-21T12:09:31;101355.69;;;9.85;100.00
19086;BME280;9675;51.538;6.728;2023-11-21T12:11:59;101361.03;;;9.88;100.00
19086;BME280;9675;51.538;6.728;2023-11-21T12:14:26;101363.59;;;9.88;100.00
19086;BME280;9675;51.538;6.728;2023-11-21T12:16:54;101364.56;;;9.90;100.00
19086;BME280;9675;51.538;6.728;2023-11-21T12:19:22;101374.94;;;9.91;100.00
19086;BME280;9675;51.538;6.728;2023-11-21T12:21:49;101373.28;;;9.92;100.00
19086;BME280;9675;51.538;6.728;2023-11-21T12:24:19;101390.50;;;9.93;100.00
19086;BME280;9675;51.538;6.728;2023-11-21T12:26:46;101392.16;;;9.92;100.00
19086;BME280;9675;51.538;6.728;2023-11-21T12:29:13;101392.28;;;9.94;100.00
19086;BME280;9675;51.538;6.728;2023-11-21T12:31:42;101397.41;;;9.94;100.00
19086;BME280;9675;51.538;6.728;2023-11-21T12:34:10;101398.47;;;9.97;100.00
19086;BME280;9675;51.538;6.728;2023-11-21T12:36:37;101392.44;;;9.97;100.00
19086;BME280;9675;51.538;6.728;2023-11-21T12:39:05;101403.63;;;9.97;100.00
19086;BME280;9675;51.538;6.728;2023-11-21T12:41:36;101396.00;;;9.99;100.00
19086;BME280;9675;51.538;6.728;2023-11-21T12:44:03;101402.94;;;10.00;100.00
19086;BME280;9675;51.538;6.728;2023-11-21T12:46:31;101401.16;;;9.99;100.00
19086;BME280;9675;51.538;6.728;2023-11-21T12:49:00;101409.84;;;10.01;100.00
19086;BME280;9675;51.538;6.728;2023-11-21T12:51:27;101409.84;;;10.01;100.00
19086;BME280;9675;51.538;6.728;2023-11-21T12:53:55;101412.41;;;10.01;100.00
19086;BME280;9675;51.538;6.728;2023-11-21T12:56:24;101415.88;;;10.01;100.00
19086;BME280;9675;51.538;6.728;2023-11-21T12:58:54;101426.25;;;10.03;100.00
19086;BME280;9675;51.538;6.728;2023-11-21T13:01:26;101426.16;;;10.01;100.00
19086;BME280;9675;51.538;6.728;2023-11-21T13:03:57;101428.03;;;10.04;100.00
19086;BME280;9675;51.538;6.728;2023-11-21T13:06:25;101427.25;;;10.05;100.00